createdAt,value
2019-05-26T00:01:23.733Z,13.23
2019-05-26T00:04:37.445Z,13.15
2019-05-26T00:07:51.272Z,13.01
2019-05-26T00:11:04.764Z,12.92
2019-05-26T00:14:18.268Z,12.87
2019-05-26T00:17:31.807Z,12.79
2019-05-26T00:20:45.397Z,12.73
2019-05-26T00:23:59.007Z,12.62
2019-05-26T00:27:12.497Z,12.50
2019-05-26T00:30:26.110Z,12.46
2019-05-26T00:33:39.603Z,12.36
2019-05-26T00:36:53.454Z,12.28
2019-05-26T00:40:09.174Z,12.15
2019-05-26T00:43:22.879Z,12.06
2019-05-26T00:46:36.527Z,11.98
2019-05-26T00:49:50.117Z,11.95
2019-05-26T00:53:04.225Z,11.89
2019-05-26T00:56:17.852Z,11.79
2019-05-26T00:59:31.552Z,11.63
2019-05-26T01:02:45.470Z,11.57
2019-05-26T01:05:59.352Z,11.50
2019-05-26T01:09:12.941Z,11.37
2019-05-26T01:12:26.432Z,11.36
2019-05-26T01:15:39.938Z,11.30
2019-05-26T01:18:53.440Z,11.27
2019-05-26T01:22:06.957Z,11.24
2019-05-26T01:25:20.868Z,11.22
2019-05-26T01:28:34.357Z,11.20
2019-05-26T01:31:48.373Z,11.09
2019-05-26T01:35:02.083Z,11.02
2019-05-26T01:38:23.890Z,10.99
2019-05-26T01:41:31.892Z,10.94
2019-05-26T01:44:45.384Z,10.89
2019-05-26T01:47:58.888Z,10.76
2019-05-26T01:51:12.643Z,10.64
2019-05-26T01:54:26.280Z,10.67
2019-05-26T01:57:39.707Z,10.65
2019-05-26T02:00:53.486Z,10.62
2019-05-26T02:04:06.970Z,10.54
2019-05-26T02:07:20.457Z,10.48
2019-05-26T02:10:33.952Z,10.45
2019-05-26T02:13:47.520Z,10.42
2019-05-26T02:17:01.453Z,10.37
2019-05-26T02:20:17.010Z,10.32
2019-05-26T02:23:30.488Z,10.27
2019-05-26T02:26:43.996Z,10.24
2019-05-26T02:29:57.474Z,10.18
2019-05-26T02:33:11.068Z,10.12
2019-05-26T02:36:25.091Z,10.09
2019-05-26T02:39:38.572Z,10.06
2019-05-26T02:42:52.258Z,10.04
2019-05-26T02:46:06.129Z,9.95
2019-05-26T02:49:19.624Z,9.91
2019-05-26T02:52:33.108Z,9.85
2019-05-26T02:55:47.076Z,9.81
2019-05-26T02:59:00.660Z,9.80
2019-05-26T03:02:14.554Z,9.73
2019-05-26T03:05:28.472Z,9.69
2019-05-26T03:08:44.242Z,9.65
2019-05-26T03:11:59.413Z,9.59
2019-05-26T03:15:14.801Z,9.60
2019-05-26T03:18:31.166Z,9.59
2019-05-26T03:21:47.635Z,9.53
2019-05-26T03:25:03.409Z,9.45
2019-05-26T03:28:16.920Z,9.43
2019-05-26T03:31:30.720Z,9.45
2019-05-26T03:34:44.244Z,9.43
2019-05-26T03:37:57.716Z,9.40
2019-05-26T03:41:11.209Z,9.35
2019-05-26T03:44:24.705Z,9.32
2019-05-26T03:47:38.620Z,9.31
2019-05-26T03:50:52.105Z,9.35
2019-05-26T03:54:05.794Z,9.36
2019-05-26T03:57:19.281Z,9.40
2019-05-26T04:00:33.178Z,9.43
2019-05-26T04:03:46.690Z,9.46
2019-05-26T04:07:00.162Z,9.47
2019-05-26T04:10:14.140Z,9.47
2019-05-26T04:13:27.933Z,9.47
2019-05-26T04:16:41.423Z,9.44
2019-05-26T04:19:54.922Z,9.44
2019-05-26T04:23:08.416Z,9.50
2019-05-26T04:26:22.001Z,9.56
2019-05-26T04:29:35.795Z,9.56
2019-05-26T04:32:49.406Z,9.59
2019-05-26T04:36:03.298Z,9.63
2019-05-26T04:39:17.143Z,9.65
2019-05-26T04:42:30.616Z,9.72
2019-05-26T04:45:44.126Z,9.79
2019-05-26T04:48:57.618Z,9.85
2019-05-26T04:52:11.232Z,9.92
2019-05-26T04:55:24.732Z,10.00
2019-05-26T04:58:38.323Z,10.04
2019-05-26T05:01:51.807Z,10.13
2019-05-26T05:05:05.644Z,10.14
2019-05-26T05:08:19.169Z,10.25
2019-05-26T05:11:33.294Z,10.35
2019-05-26T05:16:38.347Z,10.55
2019-05-26T05:19:52.060Z,10.55
2019-05-26T05:23:05.793Z,10.64
2019-05-26T05:26:19.701Z,10.76
2019-05-26T05:29:33.573Z,10.91
2019-05-26T05:32:47.341Z,11.03
2019-05-26T05:36:00.933Z,11.16
2019-05-26T05:39:14.536Z,11.28
2019-05-26T05:42:28.277Z,11.48
2019-05-26T05:45:41.875Z,11.62
2019-05-26T05:48:55.618Z,11.72
2019-05-26T05:52:09.200Z,11.87
2019-05-26T05:55:22.681Z,11.96
2019-05-26T05:58:36.166Z,12.13
2019-05-26T06:01:49.802Z,12.28
2019-05-26T06:05:04.100Z,12.55
2019-05-26T06:08:17.753Z,12.79
2019-05-26T06:11:31.406Z,13.03
2019-05-26T06:14:45.839Z,13.20
2019-05-26T06:17:59.674Z,13.52
2019-05-26T06:21:13.188Z,13.76
2019-05-26T06:24:26.780Z,14.08
2019-05-26T06:27:40.281Z,14.39
2019-05-26T06:30:54.246Z,14.67
2019-05-26T06:34:07.779Z,14.91
2019-05-26T06:37:21.427Z,15.07
2019-05-26T06:40:34.956Z,15.28
2019-05-26T06:43:48.722Z,15.48
2019-05-26T06:47:02.337Z,15.69
2019-05-26T06:50:16.315Z,15.96
2019-05-26T06:53:29.834Z,16.14
2019-05-26T06:56:43.319Z,16.35
2019-05-26T06:59:56.827Z,16.46
2019-05-26T07:03:10.304Z,16.49
2019-05-26T07:06:23.926Z,16.71
2019-05-26T07:09:37.401Z,16.94
2019-05-26T07:12:50.896Z,17.10
2019-05-26T07:16:04.434Z,17.23
2019-05-26T07:19:17.921Z,17.33
2019-05-26T07:22:31.433Z,17.54
2019-05-26T07:25:44.930Z,17.56
2019-05-26T07:28:58.404Z,17.78
2019-05-26T07:32:12.194Z,17.77
2019-05-26T07:35:25.921Z,17.90
2019-05-26T07:38:39.834Z,17.93
2019-05-26T07:42:08.778Z,17.99
2019-05-26T07:45:10.026Z,18.00
2019-05-26T07:48:23.460Z,17.93
2019-05-26T07:51:37.067Z,18.14
2019-05-26T07:54:50.542Z,18.20
2019-05-26T07:58:04.249Z,18.52
2019-05-26T08:01:17.849Z,18.64
2019-05-26T08:04:31.625Z,18.70
2019-05-26T08:07:45.406Z,18.83
2019-05-26T08:10:58.913Z,18.68
2019-05-26T08:14:12.510Z,18.66
2019-05-26T08:17:26.585Z,18.91
2019-05-26T08:20:42.689Z,18.99
2019-05-26T08:23:56.179Z,19.20
2019-05-26T08:27:09.718Z,19.25
2019-05-26T08:30:23.336Z,19.28
2019-05-26T08:33:36.884Z,19.49
2019-05-26T08:36:50.309Z,19.74
2019-05-26T08:40:19.171Z,19.74
2019-05-26T08:43:32.673Z,19.75
2019-05-26T08:46:46.271Z,19.90
2019-05-26T08:49:59.775Z,20.09
2019-05-26T08:53:13.363Z,19.94
2019-05-26T08:56:26.973Z,19.99
2019-05-26T08:59:40.802Z,19.97
2019-05-26T09:02:54.417Z,19.91
2019-05-26T09:06:08.171Z,20.00
2019-05-26T09:09:21.789Z,20.20
2019-05-26T09:12:35.303Z,20.08
2019-05-26T09:15:48.799Z,20.07
2019-05-26T09:19:02.541Z,20.01
2019-05-26T09:22:16.029Z,20.25
2019-05-26T09:25:29.532Z,20.64
2019-05-26T09:28:43.178Z,20.80
2019-05-26T09:31:56.702Z,20.55
2019-05-26T09:35:10.547Z,20.61
2019-05-26T09:38:24.238Z,20.34
2019-05-26T09:41:37.769Z,20.41
2019-05-26T09:44:51.238Z,20.42
2019-05-26T09:48:04.733Z,20.61
2019-05-26T09:51:18.354Z,20.76
2019-05-26T09:54:31.877Z,20.69
2019-05-26T09:57:45.373Z,20.45
2019-05-26T10:00:58.985Z,20.54
2019-05-26T10:04:12.718Z,20.56
2019-05-26T10:07:26.653Z,20.39
2019-05-26T10:10:40.274Z,20.57
2019-05-26T10:13:53.795Z,20.63
2019-05-26T10:17:07.407Z,20.87
2019-05-26T10:20:21.125Z,20.93
2019-05-26T10:23:34.894Z,20.74
2019-05-26T10:26:48.557Z,20.71
2019-05-26T10:30:05.456Z,21.06
2019-05-26T10:33:19.202Z,21.33
2019-05-26T10:36:32.850Z,21.68
2019-05-26T10:39:46.385Z,21.72
2019-05-26T10:43:00.231Z,21.69
2019-05-26T10:46:14.026Z,21.93
2019-05-26T10:49:27.667Z,21.95
2019-05-26T10:52:41.297Z,21.66
2019-05-26T10:55:54.831Z,21.84
2019-05-26T10:59:08.748Z,21.80
2019-05-26T11:02:22.394Z,21.96
2019-05-26T11:05:35.902Z,22.21
2019-05-26T11:08:49.438Z,22.21
2019-05-26T11:12:03.366Z,22.44
2019-05-26T11:15:17.645Z,22.52
2019-05-26T11:18:31.184Z,22.55
2019-05-26T11:21:44.721Z,22.68
2019-05-26T11:24:58.370Z,22.84
2019-05-26T11:28:12.277Z,22.99
2019-05-26T11:31:25.829Z,23.26
2019-05-26T11:34:39.350Z,23.15
2019-05-26T11:37:53.019Z,23.35
2019-05-26T11:41:06.677Z,23.52
2019-05-26T11:44:20.323Z,23.49
2019-05-26T11:47:34.053Z,23.64
2019-05-26T11:50:47.728Z,23.71
2019-05-26T11:54:01.268Z,23.72
2019-05-26T11:57:15.266Z,23.67
2019-05-26T12:00:29.857Z,23.57
2019-05-26T12:03:43.689Z,23.93
2019-05-26T12:06:57.243Z,24.04
2019-05-26T12:10:14.198Z,23.83
2019-05-26T12:16:39.206Z,24.17
2019-05-26T12:19:52.799Z,24.51
2019-05-26T12:23:06.430Z,24.91
2019-05-26T12:26:20.018Z,25.00
2019-05-26T12:29:33.573Z,24.95
2019-05-26T12:32:47.135Z,24.75
2019-05-26T12:36:01.057Z,24.57
2019-05-26T12:39:14.867Z,24.73
2019-05-26T12:42:28.395Z,25.25
2019-05-26T12:45:41.865Z,25.13
2019-05-26T12:48:55.357Z,24.83
2019-05-26T12:52:09.190Z,25.02
2019-05-26T12:55:23.439Z,24.80
2019-05-26T12:58:37.381Z,24.12
2019-05-26T13:01:51.028Z,24.48
2019-05-26T13:05:05.253Z,24.38
2019-05-26T13:08:18.761Z,24.61
2019-05-26T13:11:32.579Z,24.60
2019-05-26T13:14:46.375Z,24.66
2019-05-26T13:17:59.877Z,24.46
2019-05-26T13:21:13.370Z,24.46
2019-05-26T13:24:26.926Z,25.13
2019-05-26T13:27:40.655Z,25.81
2019-05-26T13:30:54.295Z,26.10
2019-05-26T13:34:08.617Z,26.06
2019-05-26T13:37:22.580Z,25.87
2019-05-26T13:40:36.330Z,26.41
2019-05-26T13:43:49.885Z,26.28
2019-05-26T13:47:03.504Z,26.21
2019-05-26T13:50:18.225Z,26.35
2019-05-26T13:53:31.909Z,26.85
2019-05-26T13:56:45.480Z,26.78
2019-05-26T13:59:59.184Z,26.23
2019-05-26T14:03:13.562Z,25.89
2019-05-26T14:06:27.397Z,25.74
2019-05-26T14:09:41.427Z,25.50
2019-05-26T14:12:54.955Z,25.60
2019-05-26T14:16:09.460Z,25.83
2019-05-26T14:19:28.629Z,26.06
2019-05-26T14:22:42.527Z,25.50
2019-05-26T14:25:56.045Z,25.92
2019-05-26T14:29:09.576Z,25.95
2019-05-26T14:32:23.196Z,26.07
2019-05-26T14:35:37.214Z,26.56
2019-05-26T14:38:51.110Z,26.02
2019-05-26T14:42:04.869Z,25.49
2019-05-26T14:45:19.200Z,24.81
2019-05-26T14:48:32.804Z,24.66
2019-05-26T14:51:46.349Z,24.95
2019-05-26T14:55:00.416Z,25.55
2019-05-26T14:58:16.425Z,25.53
2019-05-26T15:01:29.854Z,25.59
2019-05-26T15:04:43.391Z,26.08
2019-05-26T15:07:57.018Z,26.33
2019-05-26T15:11:10.549Z,26.11
2019-05-26T15:14:24.241Z,25.53
2019-05-26T15:17:37.889Z,25.31
2019-05-26T15:20:51.642Z,25.55
2019-05-26T15:24:05.354Z,25.52
2019-05-26T15:27:19.130Z,25.34
2019-05-26T15:30:32.755Z,25.08
2019-05-26T15:33:46.247Z,24.88
2019-05-26T15:36:59.742Z,25.49
2019-05-26T15:40:14.392Z,26.43
2019-05-26T15:43:29.332Z,26.65
2019-05-26T15:46:42.838Z,26.78
2019-05-26T15:49:56.359Z,26.09
2019-05-26T15:53:10.095Z,24.99
2019-05-26T15:56:23.687Z,24.50
2019-05-26T15:59:37.376Z,24.31
2019-05-26T16:02:50.987Z,25.31
2019-05-26T16:06:05.389Z,25.69
2019-05-26T16:09:18.918Z,26.37
2019-05-26T16:12:32.539Z,27.43
2019-05-26T16:15:46.185Z,28.53
2019-05-26T16:18:59.698Z,29.28
2019-05-26T16:22:13.461Z,30.11
2019-05-26T16:25:27.078Z,30.61
2019-05-26T16:28:40.759Z,30.59
2019-05-26T16:31:54.436Z,28.64
2019-05-26T16:35:08.613Z,27.34
2019-05-26T16:38:22.254Z,28.18
2019-05-26T16:41:35.926Z,29.51
2019-05-26T16:44:49.520Z,30.87
2019-05-26T16:48:03.240Z,31.16
2019-05-26T16:51:17.504Z,31.54
2019-05-26T16:54:31.131Z,31.31
2019-05-26T16:57:44.870Z,30.36
2019-05-26T17:00:58.511Z,31.56
2019-05-26T17:04:12.147Z,32.17
2019-05-26T17:07:26.408Z,32.31
2019-05-26T17:10:40.390Z,31.25
2019-05-26T17:13:54.066Z,30.35
2019-05-26T17:17:14.587Z,29.20
2019-05-26T17:20:23.389Z,29.46
2019-05-26T17:23:36.937Z,30.30
2019-05-26T17:26:50.584Z,31.08
2019-05-26T17:30:05.335Z,31.37
2019-05-26T17:33:19.039Z,30.21
2019-05-26T17:36:32.820Z,29.21
2019-05-26T17:39:46.740Z,27.99
2019-05-26T17:43:00.379Z,27.05
2019-05-26T17:46:15.293Z,26.61
2019-05-26T17:49:28.960Z,26.44
2019-05-26T17:52:42.502Z,25.67
2019-05-26T17:55:56.360Z,25.31
2019-05-26T17:59:09.959Z,25.12
2019-05-26T18:02:23.901Z,24.96
2019-05-26T18:05:37.386Z,25.57
2019-05-26T18:08:50.974Z,26.39
2019-05-26T18:12:04.760Z,26.76
2019-05-26T18:15:18.489Z,25.94
2019-05-26T18:18:32.093Z,25.06
2019-05-26T18:21:45.597Z,24.48
2019-05-26T18:24:59.628Z,23.87
2019-05-26T18:28:13.235Z,23.34
2019-05-26T18:31:29.081Z,22.87
2019-05-26T18:34:42.493Z,22.46
2019-05-26T18:37:56.337Z,22.05
2019-05-26T18:41:09.849Z,21.65
2019-05-26T18:44:23.526Z,21.31
2019-05-26T18:47:37.054Z,20.96
2019-05-26T18:50:50.683Z,20.63
2019-05-26T18:54:04.457Z,20.31
2019-05-26T18:57:18.368Z,19.99
2019-05-26T19:00:32.504Z,19.71
2019-05-26T19:03:45.984Z,19.49
2019-05-26T19:06:59.481Z,19.26
2019-05-26T19:14:04.950Z,18.78
2019-05-26T19:17:18.856Z,18.49
2019-05-26T19:20:32.383Z,18.24
2019-05-26T19:23:46.021Z,17.99
2019-05-26T19:26:59.478Z,17.75
2019-05-26T19:30:13.720Z,17.44
2019-05-26T19:33:27.336Z,17.18
2019-05-26T19:36:40.853Z,17.01
2019-05-26T19:39:54.790Z,16.77
2019-05-26T19:43:08.291Z,16.51
2019-05-26T19:46:21.908Z,16.43
2019-05-26T19:49:35.872Z,16.31
2019-05-26T19:52:50.137Z,16.28
2019-05-26T19:56:04.301Z,16.11
2019-05-26T19:59:18.349Z,15.91
2019-05-26T20:02:31.836Z,15.79
2019-05-26T20:05:45.340Z,15.71
2019-05-26T20:08:58.924Z,15.65
2019-05-26T20:12:12.566Z,15.51
2019-05-26T20:15:26.381Z,15.39
2019-05-26T20:18:39.972Z,15.29
2019-05-26T20:21:53.986Z,15.25
2019-05-26T20:25:08.226Z,15.18
2019-05-26T20:28:21.706Z,15.07
2019-05-26T20:31:35.210Z,14.90
2019-05-26T20:34:48.829Z,14.88
2019-05-26T20:38:02.532Z,14.80
2019-05-26T20:41:16.061Z,14.71
2019-05-26T20:44:29.560Z,14.66
2019-05-26T20:47:43.132Z,14.53
2019-05-26T20:50:56.966Z,14.49
2019-05-26T20:54:10.483Z,14.30
2019-05-26T20:57:24.077Z,14.29
2019-05-26T21:00:37.569Z,14.27
2019-05-26T21:03:51.061Z,14.21
2019-05-26T21:07:05.078Z,14.19
2019-05-26T21:10:18.731Z,14.17
2019-05-26T21:16:40.049Z,14.06
2019-05-26T21:19:53.652Z,13.78
2019-05-26T21:23:07.144Z,13.70
2019-05-26T21:26:20.645Z,13.74
2019-05-26T21:29:34.262Z,13.78
2019-05-26T21:32:47.834Z,13.79
2019-05-26T21:36:01.433Z,13.78
2019-05-26T21:39:14.905Z,13.75
2019-05-26T21:42:28.403Z,13.70
2019-05-26T21:45:41.902Z,13.68
2019-05-26T21:48:55.402Z,13.67
2019-05-26T21:52:09.189Z,13.71
2019-05-26T21:55:22.688Z,13.72
2019-05-26T21:58:36.269Z,13.70
2019-05-26T22:01:50.124Z,13.72
2019-05-26T22:05:04.928Z,13.77
2019-05-26T22:08:18.659Z,13.78
2019-05-26T22:11:32.174Z,13.73
2019-05-26T22:14:45.792Z,13.71
2019-05-26T22:17:59.602Z,13.68
2019-05-26T22:21:13.303Z,13.68
2019-05-26T22:24:27.070Z,13.67
2019-05-26T22:27:40.576Z,13.65
2019-05-26T22:30:54.060Z,13.61
2019-05-26T22:34:08.018Z,13.60
2019-05-26T22:37:21.501Z,13.56
2019-05-26T22:40:35.003Z,13.48
2019-05-26T22:43:48.500Z,13.39
2019-05-26T22:47:02.269Z,13.35
2019-05-26T22:50:16.053Z,13.23
2019-05-26T22:53:29.577Z,13.17
2019-05-26T22:56:43.053Z,13.11
2019-05-26T22:59:56.553Z,13.09
2019-05-26T23:03:10.147Z,13.06
2019-05-26T23:06:23.737Z,13.00
2019-05-26T23:09:37.238Z,12.96
2019-05-26T23:12:51.078Z,12.89
2019-05-26T23:16:04.676Z,12.84
2019-05-26T23:19:19.932Z,12.79
2019-05-26T23:22:33.919Z,12.79
2019-05-26T23:25:47.794Z,12.72
2019-05-26T23:29:01.294Z,12.59
2019-05-26T23:32:15.124Z,12.45
2019-05-26T23:35:28.641Z,12.41
2019-05-26T23:38:42.556Z,12.36
2019-05-26T23:41:56.052Z,12.34
2019-05-26T23:45:11.417Z,12.33
2019-05-26T23:48:24.999Z,12.30
2019-05-26T23:51:38.592Z,12.28
2019-05-26T23:54:52.073Z,12.24
2019-05-26T23:58:05.674Z,12.22
